Date,TemperatureHighF,TemperatureAvgF,TemperatureLowF,DewpointHighF,DewpointAvgF,DewpointLowF,HumidityHigh,HumidityAvg,HumidityLow,PressureMaxIn,PressureMinIn,WindSpeedMaxMPH,WindSpeedAvgMPH,GustSpeedMaxMPH,PrecipitationSumIn
2013-1-1,77.8,62.9,57.2,75.1,62.3,56.6,98,98,90,30.09,29.95,2,0,6,0.00
2013-1-2,86.6,68.5,56.1,85.6,67.8,51.5,98,98,86,30.14,29.89,7,1,10,0.00
2013-1-3,79.3,66.1,59.7,78.7,65.5,59.1,98,98,98,30.08,29.94,2,0,5,0.02
2013-1-4,64.4,60.6,57.7,63.8,60.0,57.1,98,98,98,30.19,30.06,2,0,4,0.10
2013-1-5,81.0,65.5,57.0,80.4,64.9,56.4,98,98,98,30.22,30.10,5,1,8,0.00
2013-1-6,87.4,70.7,62.6,86.7,70.0,62.0,98,98,98,30.13,29.96,5,1,10,0.00
2013-1-7,79.7,66.4,58.8,78.4,65.6,58.2,98,97,61,30.14,30.04,3,0,7,0.00
2013-1-8,85.2,72.6,62.6,84.6,72.0,62.0,98,98,98,30.14,30.04,5,1,7,0.00
2013-1-9,84.7,73.9,66.2,84.1,73.3,65.6,98,98,98,30.22,30.11,6,1,9,0.00
2013-1-10,84.4,72.9,66.7,83.8,72.3,66.1,98,98,98,30.23,30.14,8,2,14,0.01
2013-1-11,85.8,71.6,61.9,84.8,71.0,61.3,98,98,80,30.18,30.07,6,1,10,0.00
2013-1-12,86.7,70.8,60.3,85.5,68.8,59.7,98,94,45,30.12,30.00,6,1,8,0.00
2013-1-13,89.0,71.2,60.1,85.5,68.4,58.3,98,93,38,30.08,29.98,5,1,7,0.00
2013-1-14,86.0,70.6,60.1,85.4,70.0,59.5,98,98,97,30.11,30.03,6,1,7,0.00
2013-1-15,84.4,71.2,62.2,83.8,70.6,61.6,98,98,98,30.07,29.97,6,1,8,0.00
2013-1-16,89.0,72.3,61.3,84.4,50.0,-27.0,98,75,1,30.02,29.91,5,1,8,0.00
2013-1-17,85.1,66.4,53.4,84.5,65.8,52.8,98,98,98,30.01,29.85,9,3,17,0.00
2013-1-18,72.0,56.0,41.0,71.4,55.5,40.5,98,98,98,30.20,30.01,5,1,10,0.06
2013-1-19,78.5,66.0,57.6,77.9,65.4,57.0,98,98,98,30.20,30.06,7,1,13,0.00
2013-1-20,82.4,66.0,56.8,81.8,65.4,56.2,98,98,98,30.09,29.97,5,0,8,0.00
2013-1-21,76.5,64.9,57.4,75.9,64.3,56.8,98,98,98,30.01,29.90,3,0,5,0.03
2013-1-22,74.5,58.7,45.3,67.4,47.8,-35.7,98,78,1,30.19,29.97,3,0,6,0.00
2013-1-23,80.2,55.9,41.2,57.3,24.2,-38.6,98,67,1,30.28,30.18,6,0,7,0.00
2013-1-24,84.8,60.2,43.3,65.5,24.9,-36.4,98,65,1,30.25,30.13,3,0,6,0.00
2013-1-25,85.9,63.1,48.9,76.0,31.5,-35.0,98,69,1,30.23,30.08,3,0,6,0.00
2013-1-26,87.0,62.8,46.9,76.7,33.9,-32.4,98,71,1,30.19,30.07,3,0,6,0.00
2013-1-27,85.5,66.7,52.5,77.1,44.2,-30.0,98,75,1,30.23,30.14,6,1,10,0.00
2013-1-28,78.9,70.2,62.2,78.3,69.6,61.6,98,98,98,30.26,30.16,7,2,11,0.00
2013-1-29,86.0,73.6,65.8,85.4,73.0,65.2,98,98,87,30.17,30.02,7,2,10,0.00
2013-1-30,87.2,74.8,67.3,83.2,72.3,63.0,98,93,46,30.03,29.79,10,4,16,0.00
2013-1-31,78.1,61.9,44.2,70.5,25.4,-45.0,98,63,1,30.14,29.81,6,2,10,0.07
2013-2-1,81.2,55.0,38.1,53.5,12.1,-44.3,98,58,1,30.27,30.13,3,0,5,0.00
2013-2-2,81.5,57.0,40.1,61.9,19.0,-40.1,98,63,1,30.23,30.05,6,1,9,0.00
2013-2-3,80.1,57.3,41.2,58.7,24.3,-37.5,98,65,1,30.11,29.96,5,1,7,0.00
2013-2-4,54.7,44.2,42.6,54.1,43.7,42.1,98,98,98,30.02,29.97,1,0,3,0.00
2013-2-5,85.5,61.6,43.3,64.5,25.9,-34.0,98,65,1,30.02,29.91,3,1,10,0.00
2013-2-6,87.6,68.8,55.9,83.7,59.5,-27.1,98,84,1,30.03,29.94,3,1,7,0.00
2013-2-7,88.2,73.5,64.9,80.7,56.0,-27.6,98,75,1,30.00,29.78,8,2,10,0.00
2013-2-8,90.7,73.0,58.8,78.9,39.8,-30.0,98,67,1,29.99,29.77,6,2,8,0.00
2013-2-9,85.0,64.3,54.9,74.1,50.4,-29.1,98,80,1,30.12,29.98,7,1,9,0.00
2013-2-10,80.0,66.2,56.7,73.4,57.6,-2.4,98,81,4,30.19,30.09,8,2,12,0.00
2013-2-11,87.9,71.6,57.9,80.6,52.7,-27.1,98,75,1,30.13,29.98,7,2,12,0.00
2013-2-12,91.0,74.6,63.1,85.0,64.7,-25.2,98,83,1,30.02,29.83,6,2,13,0.00
2013-2-13,90.7,75.8,66.2,86.8,71.8,55.6,98,90,31,29.87,29.71,8,4,17,0.62
2013-2-14,74.1,66.5,60.6,73.5,65.9,60.0,98,98,98,29.95,29.83,3,0,5,0.23
2013-2-15,82.2,62.9,54.3,69.6,53.6,-30.4,98,85,1,29.99,29.86,3,0,5,0.04
2013-2-16,79.1,60.1,47.8,66.2,19.7,-45.7,98,57,1,30.03,29.79,7,2,13,0.00
2013-2-17,67.7,47.1,33.1,38.3,-6.7,-53.7,98,39,1,30.27,30.03,5,1,7,0.00
2013-2-18,71.8,51.5,32.0,58.3,14.5,-42.6,98,62,1,30.30,30.14,7,2,12,0.00
2013-2-19,85.6,64.2,47.1,73.6,28.6,-33.4,98,65,1,30.14,29.96,8,2,14,0.00
2013-2-20,87.6,66.1,56.8,72.9,56.7,-26.6,98,86,1,30.05,29.93,6,1,7,0.00
2013-2-21,92.3,71.4,56.8,81.1,48.4,-25.8,98,76,1,30.03,29.90,5,1,8,0.00
2013-2-22,92.6,75.2,63.2,83.3,64.2,-23.1,98,85,1,30.00,29.90,7,2,12,0.00
2013-2-23,92.3,78.1,71.6,83.6,61.8,-24.2,98,78,1,29.93,29.76,8,3,13,0.00
2013-2-24,80.8,72.7,68.0,80.2,72.1,67.4,98,98,98,29.88,29.77,5,1,11,0.35
2013-2-25,91.3,76.3,67.1,86.0,56.0,-25.9,98,76,1,29.85,29.67,6,1,11,0.21
2013-2-26,81.2,74.0,64.0,80.5,73.4,63.4,98,98,98,29.76,29.65,10,3,15,0.02
2013-2-27,87.6,70.2,55.8,73.6,38.7,-30.5,98,67,1,29.88,29.76,5,1,8,0.00
2013-2-28,84.3,64.3,50.0,67.3,22.6,-38.3,98,59,1,29.91,29.77,6,1,10,0.00
2013-3-1,74.1,58.0,47.4,56.5,9.4,-44.4,98,49,1,29.91,29.81,5,1,8,0.00
2013-3-2,69.7,53.5,39.9,50.2,5.8,-47.6,98,49,1,29.94,29.85,8,2,14,0.00
2013-3-3,64.6,46.9,35.8,44.1,8.3,-48.7,98,59,1,30.08,29.91,7,2,11,0.00
2013-3-4,79.4,53.0,33.1,49.1,0.4,-46.2,98,46,1,30.16,30.03,5,1,6,0.00
2013-3-5,86.0,62.4,40.9,61.6,6.2,-39.8,98,47,1,30.11,29.92,6,2,10,0.00
2013-3-6,78.9,63.2,45.7,63.6,5.5,-45.5,98,39,1,30.04,29.83,7,3,13,0.00
2013-3-7,80.1,55.3,37.8,57.3,14.8,-42.7,98,59,1,30.14,30.03,5,1,7,0.00
2013-3-8,87.1,60.5,43.5,64.4,20.1,-37.9,98,60,1,30.14,30.03,6,1,9,0.00
2013-3-9,82.4,61.5,46.7,66.2,19.3,-37.9,98,58,1,30.15,30.06,7,1,11,0.00
2013-3-10,81.1,65.6,54.3,71.5,38.3,-31.8,98,66,1,30.10,30.00,8,2,14,0.00
2013-3-11,85.5,68.0,55.0,72.4,36.9,-31.2,98,68,1,30.04,29.83,7,2,10,0.00
2013-3-12,76.1,68.4,60.4,75.5,67.8,59.8,98,98,98,29.92,29.79,6,3,12,0.29
2013-3-13,88.5,65.0,47.9,60.0,15.5,-43.1,98,53,1,30.07,29.91,5,1,7,0.00
2013-3-14,81.3,57.3,42.3,50.4,10.2,-43.9,98,53,1,30.18,30.06,5,1,6,0.00
2013-3-15,85.6,59.1,39.7,59.8,7.1,-44.5,98,49,1,30.21,30.05,5,1,6,0.00
2013-3-16,92.7,64.8,44.4,61.4,8.7,-41.2,98,45,1,30.11,29.94,5,1,9,0.00
2013-3-17,88.9,65.8,46.8,68.5,20.0,-34.8,98,56,1,30.07,29.90,7,2,11,0.00
2013-3-18,86.3,72.6,62.8,76.5,61.1,-26.8,98,81,1,29.98,29.81,6,2,12,0.00
2013-3-19,100.9,76.7,65.3,78.1,32.2,-31.8,98,58,1,29.93,29.79,3,1,7,0.00
2013-3-20,84.2,70.5,60.8,81.3,69.0,47.3,98,96,28,29.88,29.69,3,1,6,0.51
2013-3-21,84.2,63.7,48.0,60.4,13.7,-45.0,98,51,1,29.88,29.77,5,1,6,0.00
2013-3-22,88.4,63.6,46.6,66.3,24.7,-37.2,98,63,1,29.94,29.81,7,1,9,0.15
2013-3-23,92.2,76.4,65.8,86.1,62.6,-25.3,98,78,1,29.90,29.66,7,2,14,0.01
2013-3-24,86.4,75.1,67.5,85.7,74.5,66.9,98,98,76,29.78,29.52,12,3,23,0.90
2013-3-25,84.3,72.8,52.3,74.2,11.8,-44.0,98,39,1,29.94,29.61,5,1,9,0.00
2013-3-26,72.0,56.5,44.2,45.5,-24.4,-51.1,98,14,1,30.14,29.93,7,2,10,0.00
2013-3-27,76.9,55.6,36.9,48.1,2.0,-45.2,98,46,1,30.22,30.11,7,1,7,0.00
2013-3-28,84.2,57.7,40.1,56.2,10.1,-42.6,98,53,1,30.22,30.09,5,1,8,0.00
2013-3-29,86.3,62.3,44.2,62.5,4.6,-44.6,98,45,1,30.25,30.11,5,1,8,0.00
2013-3-30,90.6,66.5,46.9,65.4,11.1,-37.6,98,47,1,30.18,30.02,7,1,9,0.00
2013-3-31,89.1,72.0,58.3,68.3,19.1,-36.0,98,50,1,30.09,29.90,10,2,14,0.00
2013-4-1,96.3,74.9,60.8,79.1,33.6,-30.6,98,61,1,29.94,29.81,7,2,14,0.00
2013-4-2,100.2,75.0,63.4,78.8,26.7,-34.5,98,55,1,30.00,29.90,5,1,10,0.00
2013-4-3,88.9,73.0,61.2,79.1,42.2,-30.9,98,68,1,29.99,29.87,7,2,10,0.13
2013-4-4,78.6,73.0,68.0,78.0,72.4,67.4,98,98,98,29.95,29.75,8,2,14,0.13
2013-4-5,85.7,70.9,60.3,83.1,60.5,-28.8,98,85,1,29.90,29.71,3,1,8,0.01
2013-4-6,87.3,69.3,55.6,70.8,25.2,-31.9,98,58,1,30.05,29.89,7,1,13,0.00
2013-4-7,89.9,71.3,60.6,75.2,29.3,-31.1,98,59,1,30.08,29.96,7,2,13,0.00
2013-4-8,91.3,73.7,61.0,78.5,23.9,-32.7,98,53,1,30.06,29.97,7,2,13,0.00
2013-4-9,88.8,74.6,63.5,80.0,30.8,-32.6,98,58,1,30.09,29.99,8,2,12,0.00
2013-4-10,67.8,67.8,67.8,67.2,67.2,67.2,98,98,98,30.05,30.05,0,0,0,0.00
2013-4-11,81.1,69.8,67.8,80.5,69.2,67.2,98,98,98,30.05,29.74,5,1,10,0.00
2013-4-12,89.4,79.8,73.9,86.1,76.8,58.1,98,92,35,29.82,29.70,8,3,17,0.00
2013-4-13,98.8,78.2,66.5,80.0,37.8,-30.6,98,61,1,29.90,29.78,7,1,8,0.00
2013-4-14,92.2,77.0,66.7,87.0,72.9,-23.0,98,92,1,29.90,29.72,6,2,9,1.60
2013-4-15,101.9,80.2,69.8,82.3,36.5,-30.1,98,59,1,29.99,29.81,5,1,10,0.00
2013-4-16,93.5,78.7,68.9,85.1,44.3,-26.8,98,67,1,30.07,29.96,9,2,10,0.00
2013-4-17,91.5,77.0,68.2,85.7,46.6,-27.4,98,69,1,30.06,29.96,8,1,12,0.00
2013-4-18,95.9,79.9,68.3,83.8,42.5,-25.5,98,65,1,29.99,29.86,6,2,9,0.00
2013-4-19,98.3,82.3,73.6,87.2,45.6,-25.1,98,64,1,29.93,29.80,8,3,13,0.14
2013-4-20,85.4,71.9,62.1,77.8,67.8,-27.0,98,93,1,30.06,29.86,6,1,8,0.02
2013-4-21,85.4,72.8,63.1,84.8,72.2,62.5,98,98,98,30.05,29.91,7,1,9,0.97
2013-4-22,91.8,74.6,68.5,85.0,66.0,-24.8,98,90,1,29.98,29.90,6,1,9,0.26
2013-4-23,89.6,75.3,62.1,81.1,37.5,-30.6,98,62,1,30.03,29.92,6,1,9,0.01
2013-4-24,93.7,75.0,60.8,78.1,26.5,-31.1,98,55,1,30.06,29.97,7,1,8,0.09
2013-4-25,100.4,78.3,63.5,78.8,26.3,-31.2,98,52,1,30.12,30.01,6,1,9,0.00
2013-4-26,97.1,78.3,64.8,81.4,29.7,-29.2,98,56,1,30.16,30.06,8,1,10,0.00
2013-4-27,89.4,76.7,68.2,81.7,32.3,-30.6,98,57,1,30.14,30.02,9,2,13,0.00
2013-4-28,88.0,75.1,66.9,81.8,35.9,-30.7,98,62,1,30.05,29.91,9,2,14,0.00
2013-4-29,95.8,78.3,66.6,80.9,35.1,-27.1,98,60,1,29.94,29.80,6,2,15,1.05
2013-4-30,98.2,78.0,69.3,82.3,44.8,-32.4,98,66,1,29.92,29.82,6,1,10,0.16
2013-5-1,81.0,75.1,72.0,80.4,66.3,-33.6,98,90,1,29.93,29.84,6,1,7,0.19
2013-5-2,79.8,74.0,70.5,79.2,73.4,69.9,98,98,98,29.87,29.72,7,2,10,1.39
2013-5-3,93.8,77.8,71.4,88.6,64.5,-24.0,98,84,1,29.75,29.56,5,1,9,0.95
2013-5-4,94.8,77.6,71.5,88.1,69.7,-24.7,98,89,1,29.69,29.57,6,1,12,0.12
2013-5-5,93.3,76.2,60.1,71.0,22.0,-36.2,98,48,1,29.84,29.65,6,1,8,0.00
2013-5-6,90.9,73.4,59.7,76.1,22.1,-34.5,98,53,1,29.90,29.79,6,1,8,0.00
2013-5-7,90.5,71.5,55.4,72.2,22.3,-32.2,98,54,1,29.95,29.85,6,1,12,0.00
2013-5-8,97.6,76.1,60.1,79.7,23.7,-31.8,98,52,1,30.03,29.92,5,1,9,0.00
2013-5-9,101.6,78.5,60.4,81.7,27.2,-30.7,98,54,1,30.05,29.98,6,1,8,0.00
2013-5-10,103.3,80.6,66.0,86.8,43.6,-24.5,98,66,1,30.04,29.90,7,1,12,0.00
2013-5-11,101.3,80.2,70.3,86.6,51.1,-22.9,98,73,1,29.96,29.85,10,1,15,0.71
2013-5-12,101.5,82.3,69.6,87.9,39.3,-27.1,98,61,1,29.94,29.83,5,1,8,0.00
2013-5-13,99.0,77.7,61.7,79.6,31.5,-35.2,98,58,1,30.04,29.89,5,0,7,0.00
2013-5-14,96.1,74.6,57.6,75.4,18.2,-35.0,98,48,1,30.12,30.03,6,1,9,0.00
2013-5-15,96.1,75.6,59.5,79.7,20.9,-33.2,98,50,1,30.12,30.01,7,1,9,0.00
2013-5-16,99.0,77.9,62.1,78.6,23.6,-31.4,98,51,1,30.04,29.93,6,1,9,0.00
2013-5-17,101.9,79.4,64.2,80.3,31.4,-28.0,98,56,1,30.01,29.94,8,2,12,0.00
2013-5-18,107.2,82.5,68.6,85.3,38.4,-26.2,98,60,1,30.02,29.92,9,2,12,0.00
2013-5-19,98.1,79.7,73.8,86.5,64.3,-24.7,98,83,1,30.00,29.90,9,2,14,0.00
2013-5-20,101.5,80.8,72.3,88.3,47.8,-26.2,98,69,1,30.00,29.89,7,1,11,0.00
2013-5-21,91.4,76.2,71.4,88.0,75.1,55.5,98,97,32,29.95,29.84,5,1,7,0.00
2013-5-22,101.2,80.2,70.7,87.0,60.8,-21.5,98,79,1,29.88,29.81,8,1,12,0.00
2013-5-23,106.0,83.1,70.3,89.5,41.7,-24.9,98,63,1,29.90,29.80,10,1,16,0.00
2013-5-24,109.6,85.3,69.8,91.3,35.0,-28.2,98,55,1,30.00,29.87,6,1,9,0.01
2013-5-25,91.4,79.8,67.5,86.9,14.4,-32.0,98,40,1,30.11,29.99,9,2,12,0.00
2013-5-26,94.0,75.0,61.2,72.4,30.0,-31.0,98,57,1,30.11,30.03,6,1,6,0.00
2013-5-27,92.0,77.4,65.2,79.4,28.7,-29.4,98,55,1,30.10,30.01,7,2,12,0.00
2013-5-28,90.9,78.9,68.5,84.8,51.6,-25.2,98,71,1,30.06,29.98,9,3,12,0.00
2013-5-29,89.6,79.4,73.0,88.9,77.5,52.5,98,95,30,30.05,29.97,8,3,12,0.02
2013-5-30,90.1,80.2,74.1,87.8,76.2,-24.6,98,92,1,30.04,29.96,10,4,14,0.01
2013-5-31,88.6,79.3,73.0,86.7,77.2,61.3,98,94,41,30.02,29.94,8,3,14,0.00
2013-6-1,92.6,81.0,73.9,91.3,80.4,73.3,98,98,92,29.98,29.88,8,3,12,0.01
2013-6-2,101.9,83.3,75.6,94.8,67.3,-19.9,98,84,1,29.93,29.78,7,1,10,0.01
2013-6-3,77.7,77.6,76.5,77.1,77.0,75.9,98,98,98,29.85,29.82,2,0,5,0.00
2013-6-4,77.7,77.7,77.7,77.1,77.1,77.1,98,98,98,29.82,29.82,0,0,0,0.00
2013-6-5,77.7,77.7,77.7,77.1,77.1,77.1,98,98,98,29.82,29.82,0,0,0,0.00
2013-6-6,77.7,77.6,76.6,77.1,77.0,75.9,98,98,98,29.82,29.64,7,0,12,0.01
2013-6-7,97.1,83.5,75.6,91.5,71.4,-20.0,98,83,1,29.85,29.67,8,3,11,0.01
2013-6-8,104.1,82.3,73.6,93.4,53.0,-32.0,98,72,1,30.02,29.85,9,1,14,0.00
2013-6-9,99.5,83.1,74.3,95.5,73.3,-20.7,98,87,1,30.02,29.92,8,2,11,0.01
2013-6-10,102.6,84.2,75.6,95.4,65.2,-30.7,98,81,1,30.01,29.91,6,1,9,0.00
2013-6-11,104.1,82.8,73.8,93.9,53.7,-31.8,98,73,1,29.99,29.91,3,1,9,0.00
2013-6-12,110.0,86.9,73.4,87.4,50.4,-19.6,98,68,1,29.97,29.88,7,1,7,0.03
2013-6-13,107.9,88.0,74.3,95.7,37.5,-31.8,98,56,1,29.95,29.78,6,1,13,0.00
2013-6-14,106.5,87.6,75.7,93.9,36.9,-31.5,98,54,1,29.83,29.73,5,1,8,0.00
2013-6-15,95.9,84.3,77.2,94.8,83.5,69.1,98,98,62,29.98,29.82,8,3,13,0.31
2013-6-16,95.6,83.9,78.4,93.6,75.9,-29.5,98,89,1,30.00,29.92,6,2,8,2.89
2013-6-17,101.4,84.4,78.6,96.6,72.1,-30.0,98,86,1,29.99,29.87,5,1,7,0.18
2013-6-18,104.9,86.1,74.7,94.0,47.5,-31.9,98,63,1,29.98,29.84,7,1,13,0.79
2013-6-19,106.4,87.0,74.8,97.6,56.4,-21.5,98,71,1,29.95,29.84,6,1,10,0.65
2013-6-20,105.0,83.6,75.4,94.0,53.0,-31.5,98,71,1,30.00,29.91,10,1,14,0.19
2013-6-21,105.6,81.4,74.8,91.2,56.7,-31.5,98,77,1,30.02,29.94,2,0,5,0.05
2013-6-22,102.6,90.1,76.5,92.8,25.0,-25.5,98,43,1,30.02,29.95,6,2,10,0.01
2013-6-23,105.1,82.2,74.5,93.0,59.0,-31.9,98,77,1,30.06,29.97,6,1,9,0.09
2013-6-24,100.9,84.4,76.1,91.8,52.2,-31.3,98,69,1,30.09,29.99,7,2,10,0.07
2013-6-25,104.9,85.6,75.0,92.3,40.5,-31.4,98,58,1,30.07,29.95,7,2,12,0.00
2013-6-26,104.5,84.1,75.4,95.4,62.4,-30.5,98,79,1,29.99,29.91,9,2,17,0.00
2013-6-27,107.9,86.0,74.1,93.4,45.4,-32.4,98,63,1,29.95,29.83,5,1,8,0.00
2013-6-28,102.8,82.7,75.6,95.4,44.1,-31.8,98,64,1,29.88,29.75,7,1,11,0.49
2013-6-29,99.4,84.5,76.6,94.9,70.3,-22.1,98,84,1,29.79,29.69,6,2,13,0.02
2013-6-30,100.7,81.8,76.3,94.9,60.9,-31.0,98,79,1,29.80,29.73,9,2,15,0.06
2013-7-1,93.8,80.3,75.0,92.1,78.6,-2.0,98,96,4,29.94,29.77,8,3,18,0.61
2013-7-2,93.5,79.5,76.3,92.9,77.9,-26.4,98,97,1,30.03,29.89,7,1,16,1.07
2013-7-3,95.8,81.6,75.9,95.2,77.0,-28.7,98,93,1,30.04,29.96,7,1,11,0.31
2013-7-4,96.1,83.1,75.4,91.3,73.8,-20.6,98,86,1,30.06,29.98,8,2,13,0.00
2013-7-5,97.0,83.4,75.9,96.3,68.4,-31.6,98,80,1,30.06,29.97,9,3,22,0.67
2013-7-6,95.9,83.9,75.7,90.8,53.5,-29.9,98,69,1,30.04,29.96,8,2,12,0.00
2013-7-7,95.4,84.7,75.7,91.1,48.9,-30.6,98,66,1,30.05,29.95,8,2,13,0.00
2013-7-8,99.1,84.7,77.0,93.2,50.9,-23.3,98,68,1,30.07,29.98,6,2,11,0.00
2013-7-9,99.9,85.1,74.5,91.8,37.1,-31.6,98,57,1,30.07,29.97,7,1,10,0.00
2013-7-10,101.8,84.1,74.8,92.9,54.7,-31.5,98,71,1,30.00,29.88,5,1,7,0.02
2013-7-11,105.3,84.3,74.8,93.2,52.4,-32.3,98,70,1,29.95,29.82,7,2,14,0.00
2013-7-12,104.0,83.5,74.7,93.4,43.4,-30.8,98,62,1,29.86,29.80,7,1,15,0.10
2013-7-13,102.0,82.1,74.9,92.1,60.6,-22.5,98,80,1,29.91,29.82,8,1,11,0.01
2013-7-14,99.3,79.9,74.7,90.8,56.3,-32.1,98,75,1,30.01,29.88,6,2,10,0.11
2013-7-15,97.2,82.1,72.3,91.6,68.4,-22.4,98,82,1,30.03,29.93,7,1,12,0.01
2013-7-16,93.7,80.8,75.4,91.6,69.9,-31.4,98,87,1,30.07,30.01,9,2,13,0.51
2013-7-17,95.9,81.5,75.4,91.1,66.8,-30.7,98,80,1,30.07,29.99,8,1,12,0.19
2013-7-18,89.1,76.8,75.2,86.1,69.9,-31.9,98,91,1,30.03,29.95,6,0,15,0.05
2013-7-19,100.7,81.4,74.3,90.4,54.1,-32.2,98,75,1,30.04,29.93,6,1,9,0.88
2013-7-20,105.6,82.0,75.0,95.8,57.9,-31.2,98,77,1,30.01,29.92,7,1,9,0.07
2013-7-21,103.3,83.2,74.7,92.5,58.0,-31.0,98,76,1,30.03,29.90,8,1,11,0.00
2013-7-22,104.6,83.5,75.7,94.9,47.6,-31.6,98,66,1,30.02,29.96,6,2,9,0.08
2013-7-23,97.3,82.9,75.5,94.4,70.4,-23.2,98,86,1,30.00,29.84,6,1,9,0.00
2013-7-24,95.7,84.4,76.3,95.1,76.5,-31.4,98,91,1,29.90,29.81,5,2,9,0.03
2013-7-25,87.4,87.4,87.4,86.8,86.8,86.8,98,98,98,29.83,29.83,2,2,3,0.00
2013-7-26,87.4,87.4,87.4,86.8,86.8,86.8,98,98,98,29.83,29.83,2,2,3,0.00
2013-7-27,87.4,87.4,87.4,86.8,86.8,86.8,98,98,98,29.83,29.83,2,2,3,0.00
2013-7-28,87.4,87.4,87.4,86.8,86.8,86.8,98,98,98,29.83,29.83,2,2,3,0.00
2013-7-29,87.4,87.4,87.4,86.8,86.8,86.8,98,98,98,29.83,29.83,2,2,3,0.00
2013-7-30,87.4,87.4,87.4,86.8,86.8,86.8,98,98,98,29.83,29.83,2,2,3,0.00
2013-7-31,87.4,87.4,87.4,86.8,86.8,86.8,98,98,98,29.83,29.83,2,2,3,0.00
2013-8-1,87.4,87.4,87.4,86.8,86.8,86.8,98,98,98,29.83,29.83,2,2,3,0.00
2013-8-2,87.4,87.4,87.4,86.8,86.8,86.8,98,98,98,29.83,29.83,2,2,3,0.00
2013-8-3,87.4,87.4,87.4,86.8,86.8,86.8,98,98,98,29.83,29.83,2,2,3,0.00
2013-8-4,87.4,86.4,79.4,86.8,82.9,-28.8,98,95,1,29.92,29.83,2,2,3,0.00
2013-8-5,108.6,84.5,74.8,97.4,61.5,-29.0,98,78,1,29.92,29.81,3,0,7,1.76
2013-8-6,107.4,86.2,75.9,95.2,42.4,-31.5,98,60,1,29.88,29.80,5,1,9,0.00
2013-8-7,98.7,86.1,78.6,95.1,57.7,-29.8,98,71,1,29.88,29.81,6,1,9,0.06
2013-8-8,99.1,86.8,77.7,93.7,41.5,-29.0,98,59,1,29.95,29.86,8,2,12,0.02
2013-8-9,100.9,85.8,77.2,92.8,48.3,-30.1,98,65,1,29.98,29.89,8,1,11,0.00
2013-8-10,101.7,86.2,74.5,94.2,39.1,-32.2,98,57,1,30.03,29.95,6,1,8,0.00
2013-8-11,105.8,87.4,75.9,93.3,38.5,-30.4,98,56,1,30.06,29.97,6,1,9,0.00
2013-8-12,106.0,87.5,75.6,92.2,36.8,-30.7,98,55,1,30.04,29.90,5,1,8,0.00
2013-8-13,108.1,89.0,74.7,93.7,40.6,-23.5,98,58,1,29.97,29.81,5,1,8,0.00
2013-8-14,110.9,84.9,75.3,94.7,46.0,-31.5,98,65,1,29.92,29.80,8,1,8,2.13
2013-8-15,105.7,85.6,75.9,93.8,50.8,-28.3,98,68,1,29.94,29.82,6,1,12,0.01
2013-8-16,105.0,85.6,76.5,94.6,53.2,-29.4,98,70,1,29.97,29.85,6,1,7,0.10
2013-8-17,102.5,85.4,78.8,94.3,42.7,-29.5,98,60,1,29.99,29.89,7,1,10,0.05
2013-8-18,97.9,86.1,78.4,92.4,29.6,-29.7,98,48,1,30.00,29.91,7,2,11,0.01
2013-8-19,101.7,85.2,78.1,96.1,48.4,-30.3,98,63,1,30.00,29.87,6,1,10,0.01
2013-8-20,100.0,86.2,77.2,92.9,35.5,-30.7,98,54,1,30.01,29.90,7,2,10,0.00
2013-8-21,96.4,82.8,78.1,95.0,76.2,-29.1,98,91,1,30.02,29.94,7,2,17,0.23
2013-8-22,97.3,82.6,78.6,95.1,65.6,-29.8,98,82,1,29.99,29.89,5,1,8,0.00
2013-8-23,100.0,84.2,77.7,94.0,56.8,-30.4,98,72,1,29.94,29.85,7,1,10,0.01
2013-8-24,105.6,83.1,76.1,95.6,16.4,-31.5,98,39,1,30.02,29.90,5,0,7,1.20
2013-8-25,93.2,81.0,75.7,92.6,77.1,-30.0,98,94,1,30.06,29.98,5,0,8,0.03
2013-8-26,100.1,82.6,75.2,93.6,55.0,-32.1,98,71,1,30.06,29.92,6,1,12,0.06
2013-8-27,95.8,82.6,72.9,92.4,26.5,-33.4,98,48,1,29.97,29.89,7,2,12,0.01
2013-8-28,101.3,83.5,71.1,91.7,31.8,-33.6,98,54,1,29.96,29.88,5,1,8,0.00
2013-8-29,106.3,85.8,72.9,92.8,37.8,-31.3,98,57,1,29.94,29.83,6,0,9,0.00
2013-8-30,109.8,85.1,75.2,88.5,41.9,-30.7,98,60,1,29.89,29.78,7,1,10,0.00
2013-8-31,107.0,86.1,73.2,92.7,39.3,-31.5,98,59,1,29.88,29.76,8,1,10,0.22
2013-9-1,105.2,84.4,73.4,94.1,25.1,-32.9,98,47,1,29.91,29.78,10,1,15,0.60
2013-9-2,105.5,84.1,74.5,93.0,49.2,-30.9,98,68,1,29.92,29.81,5,1,13,0.07
2013-9-3,106.6,86.1,74.3,94.5,38.3,-31.3,98,58,1,29.92,29.82,5,1,8,0.00
2013-9-4,104.7,84.5,74.8,92.4,42.2,-31.9,98,61,1,29.99,29.88,6,0,13,0.13
2013-9-5,104.4,84.5,75.6,95.9,63.4,-28.8,98,80,1,30.00,29.90,5,0,8,0.00
2013-9-6,107.5,82.9,73.5,96.6,54.7,-32.5,98,74,1,29.95,29.87,5,0,10,0.91
2013-9-7,102.5,81.5,73.9,95.2,44.2,-32.7,98,65,1,29.92,29.83,5,0,7,0.12
2013-9-8,104.0,84.2,73.6,94.7,42.5,-31.3,98,62,1,29.88,29.77,6,0,9,0.00
2013-9-9,100.9,83.9,72.7,92.3,21.7,-33.4,98,43,1,29.94,29.84,6,1,10,0.00
2013-9-10,100.2,84.8,74.5,89.8,23.1,-32.3,98,45,1,30.00,29.91,8,2,10,0.01
2013-9-11,97.0,83.7,74.5,90.4,37.6,-32.4,98,58,1,29.99,29.90,9,2,10,0.00
2013-9-22,98.3,84.1,75.9,87.5,35.8,-31.5,98,57,1,29.75,29.63,6,2,10,0.18
2013-9-23,93.3,79.1,75.4,92.7,75.4,-31.2,98,93,1,29.87,29.75,5,1,9,1.05
2013-9-24,93.2,80.0,75.2,89.7,74.4,-30.4,98,92,1,29.87,29.74,7,1,12,0.62
2013-9-25,90.0,79.6,75.4,88.0,72.0,-31.1,98,90,1,29.74,29.68,6,1,13,0.00
2013-9-26,103.2,84.3,72.7,92.8,51.6,-31.5,98,70,1,29.76,29.66,3,1,7,0.00
2013-9-27,94.4,77.8,71.1,88.5,51.4,-34.5,98,74,1,29.86,29.75,2,0,6,0.08
2013-9-28,90.0,78.1,72.0,89.4,75.5,-32.7,98,96,1,29.91,29.81,5,0,9,0.06
2013-9-29,99.7,80.5,69.6,89.2,32.8,-34.8,98,57,1,29.89,29.81,3,0,7,0.00
2013-9-30,71.1,70.9,70.7,70.5,67.1,-34.8,98,95,1,29.87,29.85,0,0,0,0.00
2013-10-1,96.6,81.7,71.8,88.5,49.4,-33.4,98,67,1,29.98,29.89,6,1,10,0.00
2013-10-2,97.0,79.3,69.6,87.3,30.3,-34.9,98,55,1,29.98,29.90,6,1,9,0.00
2013-10-3,96.6,80.3,69.6,89.6,37.1,-34.9,98,61,1,29.98,29.89,6,1,9,0.00
2013-10-4,99.1,81.3,71.4,89.4,35.7,-33.5,98,58,1,29.99,29.89,6,1,9,0.00
2013-10-5,94.8,79.5,71.2,90.3,46.4,-33.8,98,69,1,29.97,29.86,6,1,10,0.03
2013-10-6,99.5,81.2,72.7,90.3,49.7,-32.7,98,71,1,29.89,29.76,5,1,10,0.35
2013-10-7,93.0,79.4,74.0,90.0,74.5,-31.5,98,93,1,29.79,29.65,5,1,12,0.13
2013-10-8,99.7,82.7,75.4,92.4,57.3,-31.5,98,76,1,29.84,29.67,3,1,6,0.02
2013-10-9,96.4,78.0,67.5,86.1,53.9,-32.6,98,77,1,29.94,29.82,2,1,5,0.01
2013-10-10,98.1,77.4,66.2,84.0,34.7,-36.9,98,60,1,29.96,29.86,5,1,6,0.00
2013-10-11,99.7,77.2,63.7,84.0,23.6,-38.7,98,51,1,29.95,29.84,2,0,5,0.00
2013-10-12,99.7,78.8,66.6,83.8,25.2,-36.9,98,52,1,29.95,29.86,0,0,0,0.00
2013-10-13,98.6,76.9,64.9,81.5,28.8,-38.3,98,56,1,29.98,29.88,5,0,8,0.00
2013-10-14,98.1,77.3,67.1,84.8,39.1,-36.7,98,65,1,29.95,29.83,5,0,7,0.00
2013-10-15,95.5,76.1,68.4,85.4,56.3,-35.6,98,80,1,29.90,29.79,2,0,3,0.00
2013-10-16,100.2,80.1,70.3,87.1,43.2,-33.8,98,66,1,29.88,29.79,2,0,6,0.00
2013-10-17,101.2,80.8,69.8,88.5,43.1,-31.8,98,66,1,29.89,29.78,3,0,5,0.00
2013-10-18,98.7,80.8,70.3,87.6,41.3,-26.9,98,64,1,29.90,29.79,3,0,8,0.00
2013-10-19,101.4,82.0,71.8,89.1,40.3,-33.6,98,62,1,29.86,29.76,3,1,8,0.00
2013-10-20,100.0,81.3,73.6,90.2,54.7,-31.9,98,76,1,29.88,29.76,0,0,0,0.00
2013-10-21,103.2,82.7,72.5,91.5,39.2,-33.0,98,61,1,29.90,29.79,0,0,3,0.01
2013-10-22,97.2,81.7,74.3,89.4,42.4,-31.9,98,64,1,29.86,29.70,7,1,12,0.11
2013-10-23,94.5,77.6,63.0,83.1,32.4,-36.0,98,58,1,29.91,29.70,2,0,6,0.00
2013-10-24,81.6,66.7,59.0,71.0,30.3,-40.8,98,65,1,30.06,29.91,0,0,0,0.00
2013-10-25,92.6,70.3,56.9,74.4,26.5,-41.8,98,60,1,30.14,30.05,0,0,0,0.00
2013-10-26,93.6,68.3,54.0,70.9,28.5,-42.2,98,63,1,30.12,29.99,1,0,2,0.00
2013-10-27,91.5,67.8,55.0,75.1,22.2,-43.6,98,57,1,30.04,29.96,6,0,8,0.00
2013-10-28,93.6,69.7,54.5,75.9,27.5,-44.4,98,61,1,30.10,30.00,5,0,7,0.00
2013-10-29,90.9,72.4,60.8,83.2,32.1,-40.5,98,62,1,30.13,30.05,6,0,11,0.00
2013-10-30,91.8,73.9,66.0,85.0,40.1,-37.4,98,68,1,30.13,30.02,6,1,12,0.00
2013-10-31,88.7,75.8,65.3,83.9,36.5,-37.0,98,63,1,30.04,29.89,7,1,10,0.00
2013-11-1,93.8,78.9,68.5,85.5,32.1,-34.6,98,57,1,29.91,29.75,10,2,15,0.00
2013-11-2,78.1,70.5,63.1,77.5,63.7,-39.0,98,91,1,29.87,29.72,3,0,7,0.18
2013-11-3,90.3,67.5,56.1,76.0,29.3,-39.4,98,64,1,30.02,29.85,3,0,6,0.01
2013-11-4,81.4,68.6,61.0,74.7,47.6,-40.3,98,79,1,30.08,29.99,9,1,18,0.01
2013-11-5,85.1,73.6,64.4,79.5,40.4,-38.6,98,67,1,30.07,30.00,9,3,16,0.12
2013-11-6,88.8,73.4,66.9,83.5,62.9,-36.1,98,89,1,30.03,29.94,5,0,9,0.00
2013-11-7,91.4,75.6,67.1,84.4,49.9,-36.6,98,75,1,29.96,29.85,2,0,3,0.00
2013-11-8,88.0,70.8,61.2,75.4,41.2,-31.3,98,72,1,30.03,29.89,0,0,0,0.00
2013-11-9,84.8,69.9,60.1,76.8,28.8,-41.1,98,61,1,30.09,30.00,7,1,12,0.14
2013-11-10,94.7,72.8,62.4,80.4,32.2,-39.8,98,63,1,30.08,29.99,2,0,7,0.00
2013-11-11,90.8,72.6,63.7,81.3,35.7,-38.6,98,65,1,30.07,29.97,6,1,8,0.00
2013-11-12,88.4,71.9,63.7,82.6,40.5,-38.7,98,70,1,30.02,29.90,0,0,2,0.00
2013-11-13,73.8,63.1,53.2,66.2,30.3,-39.4,98,68,1,30.22,29.98,3,0,6,0.00
2013-11-14,79.9,64.1,53.2,68.8,18.3,-45.1,98,55,1,30.21,30.09,9,1,12,0.00
2013-11-15,84.4,68.8,58.5,77.1,38.5,-40.3,98,70,1,30.10,29.98,3,0,7,0.06
2013-11-16,82.8,73.3,68.4,82.2,70.6,-33.8,98,95,1,30.04,29.94,3,0,6,0.22
2013-11-17,89.8,77.9,70.2,85.2,47.1,-27.4,98,72,1,29.99,29.88,5,1,7,0.00
2013-11-18,97.2,77.4,70.3,84.8,43.7,-34.5,98,69,1,29.94,29.82,2,0,5,0.00
2013-11-19,88.9,73.8,65.5,74.6,35.2,-37.2,98,64,1,29.88,29.78,2,0,3,0.00
2013-11-20,83.9,73.3,65.8,82.6,62.4,-37.3,98,88,1,30.02,29.86,7,1,10,0.15
2013-11-21,79.7,73.6,70.9,79.1,70.8,-32.8,98,95,1,30.10,30.01,7,1,10,0.37
2013-11-22,82.0,73.6,67.8,81.4,63.5,-36.6,98,88,1,30.11,30.01,7,1,10,0.04
2013-11-23,94.0,74.7,64.8,80.5,37.4,-31.0,98,65,1,30.01,29.89,6,0,7,0.00
2013-11-24,78.5,67.2,62.4,75.8,57.9,-37.8,98,89,1,30.14,29.93,5,1,10,0.00
2013-11-25,77.0,67.2,59.5,69.6,35.6,-35.5,98,69,1,30.16,29.99,10,2,13,0.00
2013-11-26,85.9,75.6,67.1,84.5,63.6,-37.0,98,86,1,29.99,29.65,7,2,14,0.26
2013-11-27,79.7,66.2,43.9,75.0,39.7,-41.1,98,74,1,30.11,29.59,7,2,14,0.11
2013-11-28,76.6,53.8,38.0,59.7,18.5,-44.1,98,65,1,30.25,30.10,5,0,6,0.00
2013-11-29,79.9,60.8,50.5,73.4,30.9,-46.8,98,70,1,30.27,30.18,2,0,6,0.00
2013-11-30,80.4,67.1,57.9,79.5,41.0,-42.2,98,74,1,30.21,30.09,7,1,12,0.02
2013-12-1,85.5,68.7,63.9,79.2,52.8,-36.9,98,82,1,30.09,29.88,3,0,6,0.00
2013-12-2,83.5,67.8,58.8,75.3,39.0,-40.3,98,71,1,29.88,29.72,3,0,6,0.00
2013-12-3,85.9,68.4,55.6,72.8,27.0,-38.9,98,61,1,29.90,29.79,3,1,7,0.00
2013-12-4,88.9,71.6,60.8,79.5,32.3,-39.8,98,63,1,29.99,29.88,5,0,9,0.00
2013-12-5,86.4,72.9,61.5,81.1,40.9,-34.2,98,70,1,30.08,29.98,6,1,7,0.00
2013-12-6,88.5,74.9,65.3,82.5,46.7,-35.1,98,73,1,30.09,29.99,6,1,9,0.00
2013-12-7,92.6,75.2,64.2,82.4,39.0,-36.0,98,67,1,30.15,30.04,5,0,7,0.00
2013-12-8,88.1,73.1,63.1,82.6,45.8,-29.5,98,74,1,30.14,30.01,7,1,9,0.00
2013-12-9,89.6,74.3,64.2,83.8,38.2,-35.6,98,66,1,30.10,29.99,5,1,8,0.00
2013-12-10,91.4,74.5,61.5,83.4,37.6,-38.1,98,65,1,30.09,29.96,6,1,11,0.00
2013-12-11,91.7,72.3,58.8,77.5,36.2,-42.0,98,66,1,30.15,30.05,1,0,3,0.00
2013-12-12,77.8,63.1,48.7,66.7,24.5,-46.1,98,62,1,30.22,30.10,3,0,6,0.00
2013-12-13,80.4,61.4,48.0,66.7,22.7,-38.4,98,62,1,30.18,30.04,7,1,12,0.00
2013-12-14,86.7,71.8,60.1,81.8,56.3,-41.1,98,83,1,30.03,29.84,6,2,10,0.02
2013-12-15,80.1,70.5,59.2,74.1,44.4,-34.4,98,74,1,30.02,29.78,7,2,12,0.06
2013-12-16,76.2,57.9,44.4,59.5,22.8,-41.2,98,66,1,30.14,30.00,2,0,5,0.00
2013-12-17,82.6,58.5,44.8,63.6,20.1,-50.5,98,62,1,30.16,30.05,2,0,5,0.00
2013-12-18,79.6,56.8,42.8,59.4,17.1,-44.6,98,61,1,30.20,30.10,2,0,4,0.01
2013-12-19,82.4,59.5,43.0,69.9,19.6,-51.5,98,60,1,30.19,30.08,7,1,8,0.00
2013-12-20,87.5,66.7,51.4,73.8,5.4,-46.6,98,41,1,30.13,30.01,6,1,8,0.00
2013-12-21,86.9,73.3,62.2,82.5,41.4,-39.6,98,69,1,30.06,29.94,7,2,10,0.00
2013-12-22,90.8,76.6,68.5,84.1,45.6,-29.8,98,71,1,30.05,29.97,8,2,12,0.00
2013-12-23,89.3,75.7,68.2,85.7,46.8,-35.9,98,73,1,30.08,29.97,7,2,10,0.00
2013-12-24,78.9,65.1,48.0,72.6,29.6,-47.3,98,65,1,30.17,29.99,3,1,6,0.00
2013-12-25,78.6,59.4,45.1,63.1,20.0,-43.5,98,62,1,30.16,30.06,6,1,12,0.00
2013-12-26,85.1,66.8,56.7,73.0,33.0,-42.8,98,67,1,30.12,30.00,3,0,7,0.00
2013-12-27,77.5,67.3,60.8,76.9,57.2,-39.8,98,89,1,30.16,30.07,3,0,5,0.00
2013-12-28,79.4,72.0,66.4,78.8,60.3,-37.4,98,87,1,30.13,29.93,8,2,10,0.42
2013-12-29,81.7,74.4,67.1,81.1,66.3,-34.5,98,91,1,29.93,29.77,7,2,10,0.10
2013-12-30,78.7,64.6,55.8,70.4,44.5,-42.7,98,79,1,30.10,29.88,0,0,0,0.00
2013-12-31,75.4,62.5,56.5,64.1,31.0,-38.5,98,69,1,30.21,30.07,2,0,6,0.00
2014-1-1,68.6,63.7,59.4,68.0,55.7,-41.4,98,90,1,30.21,29.97,2,0,6,0.01
2014-1-2,83.8,71.0,63.5,82.5,67.4,-35.0,98,94,1,29.97,29.70,10,2,14,0.55